Latest Weather Observations for Rockhampton

IDQ60801

Issued at 11:35 pm EST Friday 1 August 2014 (issued every 30 minutes, with the page automatically refreshed every 10 minutes)

About weather observations | Map of weather stations | Latest weather observations for QLD | Other Formats
Station Details ID: 039083 Name: ROCKHAMPTON AERO Lat: -23.38 Lon: 150.48 Height: 10.4 m
Data from the previous 72 hours. | See also: Recent months at Rockhampton
Date/Time
EST
Temp
°C
App
Temp
°C
Dew
Point
Rel
Hum
%
Delta-T
°C
Wind Press
QNH
hPa
Press
MSL
hPa
Rain
since 9 am
mm
Dir
 
Spd
km/h
Gust
km/h
Spd
kts
Gust
kts
01/11:30pm 17.3 17.9 15.2 87 1.2 N 6 7 3 4 1017.8 - 0.0
01/11:00pm 16.7 16.6 15.0 90 1.0 N 9 11 5 6 1017.6 - 0.0
01/10:30pm 18.2 18.2 15.3 83 1.7 N 9 11 5 6 1017.8 - 0.0
01/10:00pm 18.2 18.1 14.9 81 1.9 N 9 11 5 6 1017.5 - 0.0
01/09:30pm 19.2 18.4 15.1 77 2.4 N 13 15 7 8 1017.3 - 0.0
01/09:00pm 19.5 19.1 15.1 76 2.6 N 11 15 6 8 1017.1 1017.1 0.0
01/08:30pm 20.0 19.6 15.2 74 2.8 N 11 13 6 7 1017.1 - 0.0
01/08:00pm 21.0 19.1 15.1 69 3.5 N 19 24 10 13 1016.6 - 0.0
01/07:30pm 21.6 20.6 15.6 68 3.6 N 15 20 8 11 1016.4 - 0.0
01/07:00pm 22.2 21.6 15.7 66 3.9 N 13 20 7 11 1015.8 - 0.0
01/06:30pm 22.8 22.0 16.0 65 4.1 N 15 20 8 11 1015.3 - 0.0
01/06:00pm 23.4 21.5 15.2 60 4.9 NNE 19 24 10 13 1014.8 1014.8 0.0
01/05:30pm 24.9 24.0 10.5 40 8.0 N 6 7 3 4 1014.3 - 0.0
01/05:00pm 26.6 25.3 9.3 33 9.5 NW 6 7 3 4 1013.9 - 0.0
01/04:30pm 27.3 25.4 9.1 31 10.0 N 9 11 5 6 1013.8 - 0.0
01/04:00pm 27.7 25.5 7.9 28 10.7 W 9 20 5 11 1013.9 - 0.0
01/03:30pm 26.6 25.1 9.3 33 9.5 SSW 7 11 4 6 1014.0 - 0.0
01/03:00pm 26.6 24.5 9.8 34 9.3 WSW 11 15 6 8 1014.1 1014.1 0.0
01/02:30pm 27.7 26.6 10.7 34 9.6 WSW 7 17 4 9 1014.4 - 0.0
01/02:00pm 26.1 24.8 11.3 39 8.4 SSW 9 13 5 7 1014.9 - 0.0
01/01:30pm 25.5 23.8 11.1 40 8.1 NW 11 15 6 8 1015.3 - 0.0
01/01:00pm 25.5 23.9 11.4 41 8.0 NW 11 17 6 9 1015.6 - 0.0
01/12:30pm 25.4 24.3 12.1 43 7.6 WNW 9 17 5 9 1016.3 - 0.0
01/12:00pm 26.2 23.6 13.2 44 7.6 N 19 24 10 13 1016.8 1016.8 0.0
01/11:30am 24.6 23.2 14.5 53 6.0 NW 15 24 8 13 1017.5 - 0.0
01/11:00am 24.7 23.0 14.6 53 6.0 NNW 17 20 9 11 1018.0 - 0.0
01/10:30am 23.7 24.3 15.7 61 4.8 NNW 7 13 4 7 1018.4 - 0.0
01/10:00am 22.4 22.1 15.5 65 4.1 WNW 11 15 6 8 1018.7 - 0.0
01/09:30am 21.7 22.3 15.3 67 3.8 WNW 6 11 3 6 1018.9 - 0.0
01/09:00am 20.7 21.9 15.8 73 2.9 W 4 11 2 6 1018.8 1018.8 0.0
01/08:30am 18.9 20.2 16.2 84 1.6 W 4 7 2 4 1018.7 - 0.0
01/08:16am 18.6 20.7 16.2 86 1.4 CALM 0 0 0 0 1018.5 - 0.0
01/08:00am 16.8 18.5 16.1 96 0.4 WSW 2 6 1 3 1018.4 - 0.0
01/07:42am 16.1 16.7 15.4 96 0.4 WSW 6 11 3 6 1018.4 - 0.0
01/07:30am 15.8 17.5 15.3 97 0.3 CALM 0 0 0 0 1018.1 - 0.0
01/07:00am 15.3 15.6 14.6 96 0.4 SW 6 9 3 5 1018.0 - 0.0
01/06:30am 15.4 16.9 14.7 96 0.4 CALM 0 0 0 0 1017.8 - 0.0
01/06:00am 15.3 16.9 14.8 97 0.3 CALM 0 0 0 0 1017.5 1017.5 0.0
01/05:48am 15.3 16.9 15.0 98 0.2 CALM 0 - 0 - 1017.5 - 0.0
01/05:35am 15.2 16.7 14.7 97 0.3 CALM 0 0 0 0 1017.5 - 0.0
01/05:30am 15.2 16.7 14.7 97 0.3 CALM 0 0 0 0 1017.4 - 0.0
01/05:00am 16.0 17.7 15.1 94 0.5 CALM 0 0 0 0 1017.4 - 0.0
01/04:30am 17.0 17.8 15.8 93 0.7 SSE 6 7 3 4 1017.2 - 0.0
01/04:00am 17.3 18.1 15.9 91 0.8 SE 6 7 3 4 1017.1 - 0.0
01/03:30am 17.3 18.1 15.9 91 0.8 SE 6 9 3 5 1017.2 - 0.0
01/03:00am 17.4 19.1 16.2 93 0.7 E 2 7 1 4 1017.4 1017.4 0.0
01/02:30am 17.4 18.1 16.0 91 0.8 SE 7 11 4 6 1017.6 - 0.0
01/02:00am 17.3 18.1 15.9 91 0.8 ESE 6 9 3 5 1017.9 - 0.0
01/01:30am 17.3 18.1 15.8 91 0.9 ESE 6 7 3 4 1017.9 - 0.0
01/01:00am 16.6 17.1 15.0 90 0.9 ENE 6 7 3 4 1017.9 - 0.0
01/12:30am 17.2 17.7 15.1 87 1.2 WSW 6 7 3 4 1018.2 - 0.0
01/12:00am 17.6 18.0 15.4 87 1.3 SSW 7 9 4 5 1018.1 1018.1 0.0
 
Date/Time
EST
Temp
°C
App
Temp
°C
Dew
Point
Rel
Hum
%
Delta-T
°C
Wind Press
QNH
hPa
Press
MSL
hPa
Rain
since 9 am
mm
Dir
 
Spd
km/h
Gust
km/h
Spd
kts
Gust
kts
31/11:30pm 17.8 19.0 15.8 88 1.2 SE 4 6 2 3 1018.2 - 0.0
31/11:00pm 18.1 18.2 15.5 85 1.5 SSE 9 11 5 6 1018.2 - 0.0
31/10:30pm 18.6 19.6 16.4 87 1.3 S 6 9 3 5 1018.4 - 0.0
31/10:00pm 18.7 19.8 16.5 87 1.3 WNW 6 7 3 4 1018.6 - 0.0
31/09:30pm 18.9 21.3 16.9 88 1.2 CALM 0 6 0 3 1018.6 - 0.0
31/09:00pm 18.9 20.1 16.9 88 1.2 NNE 6 7 3 4 1018.6 1018.6 0.0
31/08:30pm 19.1 19.3 16.8 86 1.4 NNE 11 15 6 8 1018.3 - 0.0
31/08:00pm 19.3 19.1 16.6 84 1.6 N 13 17 7 9 1018.0 - 0.0
31/07:30pm 19.4 19.1 16.4 83 1.8 NNE 13 17 7 9 1017.9 - 0.0
31/07:00pm 19.6 18.4 16.1 80 2.1 NNE 17 22 9 12 1017.4 - 0.0
31/06:30pm 19.9 18.8 15.3 75 2.7 N 15 20 8 11 1017.3 - 0.0
31/06:00pm 20.0 18.5 15.2 74 2.8 NNE 17 22 9 12 1017.1 1017.1 0.0
31/05:30pm 21.0 18.8 13.3 61 4.4 NNE 17 24 9 13 1017.0 - 0.0
31/05:00pm 22.2 18.9 11.0 49 6.2 N 19 24 10 13 1016.8 - 0.0
31/04:30pm 22.5 19.3 11.8 50 6.0 NNE 20 30 11 16 1016.7 - 0.0
31/04:00pm 22.8 19.6 12.0 50 6.1 N 20 28 11 15 1016.6 - 0.0
31/03:30pm 23.6 20.5 12.2 48 6.5 N 20 26 11 14 1016.4 - 0.0
31/03:00pm 25.0 23.2 12.2 44 7.3 NNE 13 20 7 11 1016.4 1016.4 0.0
31/02:30pm 24.7 23.0 11.2 42 7.6 ENE 11 17 6 9 1016.5 - 0.0
31/02:00pm 25.0 23.3 9.9 38 8.3 NE 9 15 5 8 1016.9 - 0.0
31/01:30pm 25.3 23.3 8.8 35 8.9 E 9 13 5 7 1017.4 - 0.0
31/01:00pm 25.5 23.5 8.6 34 9.1 NE 9 15 5 8 1017.8 - 0.0
31/12:30pm 24.8 23.3 10.6 40 7.9 ESE 9 17 5 9 1018.4 - 0.0
31/12:00pm 24.7 24.1 13.6 50 6.5 SSE 9 19 5 10 1019.2 1019.2 0.0
31/11:30am 23.5 23.6 14.5 57 5.3 W 7 11 4 6 1019.8 - 0.0
31/11:00am 23.4 23.6 14.8 58 5.1 SSE 7 9 4 5 1020.5 - 0.0
31/10:30am 21.9 22.2 14.6 63 4.3 SSE 6 9 3 5 1021.1 - 0.0
31/10:00am 20.5 19.8 14.3 67 3.6 SE 11 17 6 9 1021.3 - 0.0
31/09:30am 18.8 18.3 13.7 72 2.9 SE 9 13 5 7 1021.4 - 0.0
31/09:00am 15.7 15.4 12.8 83 1.6 S 6 7 3 4 1021.6 1021.6 0.0
31/08:30am 14.3 13.7 12.3 88 1.1 S 7 9 4 5 1021.5 - 0.0
31/08:00am 12.5 12.2 11.4 93 0.6 S 4 9 2 5 1021.3 - 0.0
31/07:30am 11.7 10.9 10.9 95 0.4 SW 6 9 3 5 1021.0 - 0.0
31/07:16am 11.6 10.2 11.0 96 0.3 SW 9 11 5 6 1021.0 - 0.0
31/07:00am 11.6 10.7 11.2 97 0.2 S 7 11 4 6 1020.9 - 0.0
31/06:50am 11.4 10.3 10.8 96 0.3 SSE 7 11 4 6 1020.8 - 0.0
31/06:30am 10.5 9.8 10.1 97 0.2 S 4 9 2 5 1020.8 - 0.0
31/06:00am 9.6 9.5 9.6 100 0.0 CALM 0 0 0 0 1020.5 1020.5 0.0
31/05:45am 9.9 9.9 9.7 99 0.1 CALM 0 - 0 - 1020.4 - 0.0
31/05:43am 9.9 9.8 9.5 97 0.2 CALM 0 - 0 - 1020.4 - 0.0
31/05:30am 9.6 9.4 9.2 97 0.2 CALM 0 - 0 - 1020.3 - 0.0
31/05:27am 9.6 9.4 9.2 97 0.2 CALM 0 - 0 - 1020.4 - 0.0
31/05:16am 9.8 9.7 9.4 97 0.2 CALM 0 0 0 0 1020.2 - 0.0
31/05:00am 9.9 9.8 9.3 96 0.3 CALM 0 0 0 0 1020.1 - 0.0
31/04:55am 10.0 9.9 9.6 97 0.2 CALM 0 0 0 0 1020.0 - 0.0
31/04:38am 9.8 9.7 9.6 99 0.1 CALM 0 0 0 0 1020.0 - 0.0
31/04:30am 10.5 10.5 9.9 96 0.3 CALM 0 0 0 0 1019.9 - 0.0
31/04:14am 10.2 10.2 9.8 97 0.2 CALM 0 0 0 0 1019.9 - 0.0
31/04:00am 10.2 9.4 9.8 97 0.2 WSW 4 7 2 4 1020.0 - 0.0
31/03:55am 10.3 9.0 9.9 97 0.2 WSW 7 9 4 5 1020.0 - 0.0
31/03:42am 10.1 8.9 9.5 96 0.3 WSW 6 9 3 5 1020.0 - 0.0
31/03:30am 10.2 10.1 9.4 95 0.4 CALM 0 - 0 - 1019.9 - 0.0
31/03:00am 10.6 10.7 10.2 97 0.2 CALM 0 - 0 - 1020.0 1020.0 0.0
31/02:49am 10.9 11.0 10.3 96 0.3 CALM 0 - 0 - 1020.0 - 0.0
31/02:33am 11.2 11.4 10.6 96 0.3 CALM 0 0 0 0 1020.1 - 0.0
31/02:30am 10.8 11.0 10.4 97 0.2 CALM 0 0 0 0 1020.1 - 0.0
31/02:00am 10.9 9.8 10.5 97 0.2 SW 7 9 4 5 1020.3 - 0.0
31/01:39am 11.6 10.7 10.6 94 0.5 SW 6 9 3 5 1020.6 - 0.0
31/01:30am 11.3 10.4 10.5 95 0.4 SW 6 9 3 5 1020.6 - 0.0
31/01:19am 11.7 11.9 10.5 92 0.6 CALM 0 0 0 0 1020.6 - 0.0
31/01:01am 11.7 11.6 10.7 94 0.5 SSW 2 6 1 3 1020.8 - 0.0
31/01:00am 11.7 11.5 10.5 92 0.6 SSW 2 6 1 3 1020.8 - 0.0
31/12:30am 11.9 12.3 11.3 96 0.3 CALM 0 0 0 0 1020.9 - 0.0
31/12:00am 12.1 12.4 10.9 92 0.6 CALM 0 6 0 3 1020.9 1020.9 0.0
 
Date/Time
EST
Temp
°C
App
Temp
°C
Dew
Point
Rel
Hum
%
Delta-T
°C
Wind Press
QNH
hPa
Press
MSL
hPa
Rain
since 9 am
mm
Dir
 
Spd
km/h
Gust
km/h
Spd
kts
Gust
kts
30/11:30pm 12.2 12.5 11.0 92 0.6 CALM 0 0 0 0 1021.1 - 0.0
30/11:00pm 13.3 12.8 12.0 92 0.7 SW 6 7 3 4 1021.3 - 0.0
30/10:30pm 13.6 14.2 11.9 89 0.9 CALM 0 0 0 0 1021.1 - 0.0
30/10:00pm 14.0 14.6 11.9 87 1.1 CALM 0 6 0 3 1021.3 - 0.0
30/09:30pm 14.4 13.6 11.8 84 1.4 S 7 11 4 6 1021.3 - 0.0
30/09:00pm 15.2 14.5 11.9 81 1.8 S 7 11 4 6 1021.3 1021.3 0.0
30/08:30pm 15.3 14.9 11.2 76 2.2 S 4 9 2 5 1021.1 - 0.0
30/08:00pm 16.1 14.4 10.0 67 3.2 SSW 9 11 5 6 1020.9 - 0.0
30/07:30pm 18.3 17.1 10.4 60 4.2 SE 7 11 4 6 1020.6 - 0.0
30/07:00pm 18.0 17.1 11.2 64 3.7 NE 7 13 4 7 1020.3 - 0.0
30/06:30pm 19.4 17.4 10.3 55 4.9 ENE 11 15 6 8 1019.9 - 0.0
30/06:00pm 19.5 17.3 9.2 51 5.4 NE 11 17 6 9 1019.6 1019.6 0.0
30/05:30pm 20.9 17.4 8.7 45 6.4 NNE 17 24 9 13 1019.3 - 0.0
30/05:00pm 23.0 19.4 6.9 35 8.3 NE 15 20 8 11 1019.2 - 0.0
30/04:30pm 24.3 20.7 4.9 28 9.7 ENE 13 24 7 13 1019.0 - 0.0
30/04:00pm 24.9 19.7 2.4 23 10.8 ENE 19 24 10 13 1018.6 - 0.0
30/03:30pm 25.4 20.5 2.3 22 11.1 ESE 17 26 9 14 1018.6 - 0.0
30/03:00pm 25.8 20.5 2.8 22 11.2 E 20 28 11 15 1018.7 1018.7 0.0
30/02:30pm 26.2 22.5 4.2 24 11.0 E 13 30 7 16 1018.9 - 0.0
30/02:00pm 25.3 20.7 3.8 25 10.6 E 17 24 9 13 1019.3 - 0.0
30/01:30pm 26.0 21.8 3.8 24 11.0 SE 15 22 8 12 1019.7 - 0.0
30/01:00pm 25.0 22.3 7.3 32 9.3 E 11 20 6 11 1020.2 - 0.0
30/12:30pm 25.3 23.4 7.7 32 9.3 SSE 7 11 4 6 1021.1 - 0.0
30/12:00pm 25.0 22.6 8.6 35 8.8 N 11 24 6 13 1021.8 1021.8 0.0
30/11:30am 25.1 22.1 7.7 33 9.2 N 13 22 7 12 1022.3 - 0.0
30/11:00am 22.9 21.2 10.0 44 7.0 N 9 15 5 8 1022.8 - 0.0
30/10:30am 22.9 22.5 11.0 47 6.6 NE 4 11 2 6 1023.3 - 0.0
30/10:00am 21.2 21.4 12.9 59 4.7 E 4 11 2 6 1023.7 - 0.0
30/09:30am 19.3 19.0 12.7 65 3.7 SE 6 11 3 6 1023.9 - 0.0
30/09:00am 17.4 18.0 13.1 76 2.4 SSW 2 9 1 5 1023.9 1023.9 0.0
30/08:30am 14.2 14.6 11.2 82 1.6 CALM 0 6 0 3 1023.8 - 0.0
30/08:00am 12.3 12.5 10.4 88 1.0 CALM 0 0 0 0 1023.6 - 0.0
30/07:30am 10.0 9.5 9.2 95 0.4 SSW 2 7 1 4 1023.5 - 0.0
30/07:17am 9.2 8.8 8.4 95 0.4 CALM 0 6 0 3 1023.3 - 0.0
30/07:00am 9.0 8.3 8.4 96 0.3 SSW 2 7 1 4 1023.2 - 0.0
30/06:30am 8.3 6.7 8.1 99 0.1 SSW 6 6 3 3 1022.9 - 0.0
30/06:00am 8.3 7.2 7.0 91 0.6 SW 2 6 1 3 1022.4 1022.4 0.0
30/05:47am 8.4 7.4 7.3 93 0.5 S 2 6 1 3 1022.3 - 0.0
30/05:30am 8.6 8.1 8.0 96 0.3 CALM 0 6 0 3 1022.1 - 0.0
30/05:00am 8.9 7.2 7.6 91 0.6 SSW 6 7 3 4 1021.9 - 0.0
30/04:30am 8.7 7.1 8.1 96 0.3 SSW 6 7 3 4 1021.7 - 0.0
30/04:00am 9.7 8.7 8.7 93 0.5 WSW 4 7 2 4 1021.5 - 0.0
30/03:30am 9.7 9.5 8.9 95 0.4 CALM 0 0 0 0 1021.5 - 0.0
30/03:00am 10.2 10.1 9.4 95 0.4 CALM 0 0 0 0 1021.5 1021.5 0.0
30/02:30am 10.1 9.8 8.5 90 0.8 CALM 0 0 0 0 1021.5 - 0.0
30/02:00am 10.6 10.5 9.6 93 0.5 CALM 0 0 0 0 1021.5 - 0.0
30/01:30am 11.1 11.2 10.1 94 0.5 CALM 0 0 0 0 1021.6 - 0.0
30/01:00am 11.3 11.4 10.1 92 0.6 CALM 0 0 0 0 1021.7 - 0.0
30/12:30am 11.7 11.8 10.3 91 0.7 CALM 0 0 0 0 1022.0 - 0.0
30/12:00am 12.0 12.1 10.2 89 0.9 CALM 0 0 0 0 1022.1 1022.1 0.0

Other Formats:

Comma delimited format used in spreadsheet applications
http://www.bom.gov.au/fwo/IDQ60801/IDQ60801.94374.axf

JavaScript Object Notation format (JSON) in row-major order
http://www.bom.gov.au/fwo/IDQ60801/IDQ60801.94374.json